This is the latest recevied weather packets stored in our database for station/object YM2KV-13. If no packets are shown the sender has not sent any weather packets the latest 10 day(s).
| Time | Temp. | Humidity | Pressure | Rain* | Wind** | Luminosity | Snow |
|---|---|---|---|---|---|---|---|
| 1778091590 | 10.56° C | 85% | 1028.4 hPa | - | - | - | - |
| 1778090990 | 10.56° C | 83% | 1028.3 hPa | - | - | - | - |
| 1778090390 | 11.11° C | 83% | 1028.3 hPa | - | - | - | - |
| 1778089790 | 11.67° C | 79% | 1028.2 hPa | - | - | - | - |
| 1778089190 | 12.22° C | 78% | 1028.1 hPa | - | - | - | - |
| 1778088590 | 12.22° C | 79% | 1028.1 hPa | - | - | - | - |
| 1778087990 | 12.78° C | 78% | 1028 hPa | - | - | - | - |
| 1778087390 | 12.78° C | 77% | 1028 hPa | - | - | - | - |
| 1778086790 | 12.78° C | 77% | 1028.1 hPa | - | - | - | - |
| 1778086190 | 13.33° C | 75% | 1028.1 hPa | - | - | - | - |
| 1778085590 | 13.89° C | 73% | 1028.1 hPa | - | - | - | - |
| 1778084990 | 13.89° C | 73% | 1028.2 hPa | - | - | - | - |
| 1778084390 | 15° C | 69% | 1028.2 hPa | - | - | - | - |
| 1778083790 | 15° C | 69% | 1028.2 hPa | - | - | - | - |
| 1778083190 | 15.56° C | 66% | 1028.2 hPa | - | - | - | - |
| 1778082590 | 16.11° C | 64% | 1028.2 hPa | - | - | - | - |
| 1778081990 | 16.67° C | 62% | 1028.2 hPa | - | - | - | - |
| 1778081390 | 16.67° C | 61% | 1028.1 hPa | - | - | - | - |
| 1778080790 | 17.22° C | 60% | 1028.1 hPa | - | - | - | - |
| 1778080190 | 17.78° C | 59% | 1028.2 hPa | - | - | - | - |
| 1778079590 | 17.78° C | 57% | 1028.2 hPa | - | - | - | - |
| 1778078990 | 18.33° C | 56% | 1028.3 hPa | - | - | - | - |
| 1778078390 | 18.33° C | 55% | 1028.2 hPa | - | - | - | - |
| 1778077790 | 18.89° C | 55% | 1028.2 hPa | - | - | - | - |
| 1778077190 | 18.89° C | 54% | 1028.2 hPa | - | - | - | - |
* Rain since midnight (hover to see other rain measurements)
** Current wind speed in m/s (hover to see current wind gust speed)